Time;durP1;ratioP1;P1;durP2;ratioP2;P2;SDS_P1;SDS_P2;PMS_P1;PMS_P2;Temp;Humidity;BMP_temperature;BMP_pressure;BME280_temperature;BME280_humidity;BME280_pressure;Samples;Min_cycle;Max_cycle;Signal;HPM_P1;HPM_P2
2021/04/11 00:01:57;;;;;;;8.90;5.90;;;12.70;99.90;;;;;;4958213;28;20519;-73
2021/04/11 00:04:23;;;;;;;6.63;5.93;;;12.60;99.90;;;;;;4962955;28;20445;-71
2021/04/11 00:06:48;;;;;;;5.97;5.47;;;12.60;99.90;;;;;;4941400;28;21128;-71
2021/04/11 00:09:14;;;;;;;6.10;5.50;;;12.60;99.90;;;;;;4960215;28;20189;-73
2021/04/11 00:11:39;;;;;;;7.00;6.30;;;12.50;99.90;;;;;;4966867;28;20190;-72
2021/04/11 00:14:07;;;;;;;5.83;5.33;;;12.50;99.90;;;;;;4964520;28;20206;-74
2021/04/11 00:16:33;;;;;;;6.53;5.87;;;12.50;99.90;;;;;;4964595;28;20190;-71
2021/04/11 00:18:58;;;;;;;7.47;5.80;;;12.50;99.90;;;;;;4957457;28;20503;-74
2021/04/11 00:21:24;;;;;;;6.17;5.33;;;12.50;99.90;;;;;;4956667;28;20229;-71
2021/04/11 00:23:50;;;;;;;6.57;5.17;;;12.50;99.90;;;;;;4963810;28;20900;-74
2021/04/11 00:26:15;;;;;;;6.03;5.53;;;12.50;99.90;;;;;;4961094;28;20210;-74
2021/04/11 00:28:41;;;;;;;7.23;5.37;;;12.70;99.90;;;;;;4962971;28;20202;-73
2021/04/11 00:31:06;;;;;;;5.40;4.90;;;12.70;99.90;;;;;;4953678;28;20241;-73
2021/04/11 00:33:33;;;;;;;7.13;5.30;;;12.70;99.90;;;;;;4965786;28;20191;-73
2021/04/11 00:36:04;;;;;;;5.90;5.30;;;12.60;99.90;;;;;;4957474;28;20218;-73
2021/04/11 00:38:30;;;;;;;5.70;5.20;;;12.60;99.90;;;;;;4953305;28;20469;-73
2021/04/11 00:41:00;;;;;;;6.30;5.70;;;12.60;99.90;;;;;;4966296;28;20462;-72
2021/04/11 00:43:27;;;;;;;8.57;6.10;;;12.50;99.90;;;;;;4962950;28;20445;-70
2021/04/11 00:46:17;;;;;;;5.60;5.10;;;12.50;99.90;;;;;;4963477;28;21035;-72
2021/04/11 00:48:44;;;;;;;8.80;5.37;;;12.50;99.90;;;;;;4963403;28;20425;-74
2021/04/11 00:51:13;;;;;;;7.50;5.63;;;12.40;99.90;;;;;;4961845;28;20499;-72
2021/04/11 00:53:39;;;;;;;6.03;5.43;;;12.40;99.90;;;;;;4952786;28;20467;-69
2021/04/11 00:56:06;;;;;;;6.77;6.03;;;12.40;99.90;;;;;;4961052;28;20469;-71
2021/04/11 00:58:33;;;;;;;6.07;5.47;;;12.30;99.90;;;;;;4957141;28;20470;-75
2021/04/11 01:00:59;;;;;;;10.53;6.07;;;12.40;99.90;;;;;;4958935;28;20473;-75
2021/04/11 01:03:31;;;;;;;6.23;5.33;;;12.40;99.90;;;;;;4979931;28;20533;-72
2021/04/11 01:05:57;;;;;;;6.63;6.03;;;12.40;99.90;;;;;;4959582;28;21150;-72
2021/04/11 01:08:27;;;;;;;7.23;6.17;;;12.30;99.90;;;;;;4959070;28;20452;-73
2021/04/11 01:11:10;;;;;;;6.33;5.70;;;12.40;99.90;;;;;;4957012;28;20504;-73
2021/04/11 01:13:43;;;;;;;6.40;5.80;;;12.40;99.90;;;;;;4958393;28;20445;-72
2021/04/11 01:16:09;;;;;;;6.47;5.90;;;12.40;99.90;;;;;;4957735;28;20537;-76
2021/04/11 01:18:35;;;;;;;6.83;5.30;;;12.40;99.90;;;;;;4963326;28;20453;-72
2021/04/11 01:21:08;;;;;;;7.07;6.37;;;12.30;99.90;;;;;;4965869;28;20495;-72
2021/04/11 01:23:47;;;;;;;6.17;5.57;;;12.40;99.90;;;;;;4960632;28;20195;-69
2021/04/11 01:26:15;;;;;;;5.97;5.23;;;12.40;99.90;;;;;;4955618;28;20453;-73
2021/04/11 01:28:43;;;;;;;6.73;6.13;;;12.30;99.90;;;;;;4964340;28;20446;-70
2021/04/11 01:31:11;;;;;;;6.10;5.20;;;12.40;99.90;;;;;;4960410;28;20537;-72
2021/04/11 01:33:41;;;;;;;6.30;5.70;;;12.40;99.90;;;;;;4964552;28;21378;-73
2021/04/11 01:36:10;;;;;;;8.30;6.00;;;12.40;99.90;;;;;;4953512;28;20465;-74
2021/04/11 01:38:38;;;;;;;5.10;4.60;;;12.40;99.90;;;;;;4960790;28;20453;-73
2021/04/11 01:41:21;;;;;;;6.23;5.50;;;12.30;99.90;;;;;;4968025;28;20472;-72
2021/04/11 01:43:48;;;;;;;5.80;5.20;;;12.40;99.90;;;;;;4962269;28;20447;-74
2021/04/11 01:46:15;;;;;;;6.17;5.57;;;12.40;99.90;;;;;;4962887;28;20465;-74
2021/04/11 01:48:41;;;;;;;6.60;5.63;;;12.40;99.90;;;;;;4964802;28;20461;-73
2021/04/11 01:51:10;;;;;;;5.20;4.70;;;12.40;99.90;;;;;;4967461;28;20528;-73
2021/04/11 01:53:37;;;;;;;6.03;5.40;;;12.40;99.90;;;;;;4965546;28;20443;-72
2021/04/11 01:56:05;;;;;;;5.70;5.20;;;12.40;99.90;;;;;;4966689;28;20936;-70
2021/04/11 01:58:32;;;;;;;6.90;6.20;;;12.40;99.90;;;;;;4965978;28;21166;-75
2021/04/11 02:01:18;;;;;;;5.13;4.73;;;12.40;99.90;;;;;;4951581;28;20488;-72
2021/04/11 02:03:43;;;;;;;6.13;5.53;;;12.40;99.90;;;;;;4962126;28;20535;-70
2021/04/11 02:06:13;;;;;;;6.80;6.20;;;12.50;99.90;;;;;;4964370;28;20508;-73
2021/04/11 02:08:44;;;;;;;6.40;5.80;;;12.40;99.90;;;;;;4965638;28;20183;-70
2021/04/11 02:11:10;;;;;;;7.27;6.13;;;12.40;99.90;;;;;;4960470;28;20448;-73
2021/04/11 02:13:39;;;;;;;6.27;5.30;;;12.30;99.90;;;;;;4962459;28;20476;-73
2021/04/11 02:16:08;;;;;;;6.73;6.00;;;12.30;99.90;;;;;;4952780;28;20465;-72
2021/04/11 02:18:35;;;;;;;5.93;5.27;;;12.30;99.90;;;;;;4962081;28;21297;-73
2021/04/11 02:21:03;;;;;;;7.67;6.00;;;12.20;99.90;;;;;;4965352;28;20520;-73
2021/04/11 02:23:30;;;;;;;7.37;5.90;;;12.20;99.90;;;;;;4962268;28;20457;-73
2021/04/11 02:25:56;;;;;;;6.17;5.60;;;12.20;99.90;;;;;;4962652;28;20455;-71
2021/04/11 02:28:30;;;;;;;6.77;6.17;;;12.10;99.90;;;;;;4960440;28;20458;-72
2021/04/11 02:31:17;;;;;;;6.13;5.03;;;12.10;99.90;;;;;;4953496;28;20455;-73
2021/04/11 02:33:48;;;;;;;6.73;6.03;;;12.10;99.90;;;;;;4962563;28;20608;-72
2021/04/11 02:36:15;;;;;;;7.10;5.80;;;12.10;99.90;;;;;;4961508;28;20587;-72
2021/04/11 02:38:42;;;;;;;6.13;5.63;;;12.10;99.90;;;;;;4958817;28;21014;-72
2021/04/11 02:41:08;;;;;;;7.30;6.00;;;12.10;99.90;;;;;;4962736;28;20480;-73
2021/04/11 02:43:34;;;;;;;6.23;5.73;;;12.00;99.90;;;;;;4966510;28;20465;-69
2021/04/11 02:45:59;;;;;;;7.47;6.00;;;12.00;99.90;;;;;;4962497;28;20257;-71
2021/04/11 02:48:26;;;;;;;6.00;5.50;;;12.00;99.90;;;;;;4968428;28;20207;-71
2021/04/11 02:50:51;;;;;;;6.23;5.63;;;12.00;99.90;;;;;;4964504;28;20198;-74
2021/04/11 02:53:21;;;;;;;8.33;6.33;;;12.00;99.90;;;;;;4947663;28;20462;-74
2021/04/11 02:55:47;;;;;;;6.23;5.70;;;11.90;99.90;;;;;;4961707;28;20219;-73
2021/04/11 02:58:16;;;;;;;8.50;5.10;;;12.00;99.90;;;;;;4963213;28;20433;-74
2021/04/11 03:01:01;;;;;;;5.47;4.97;;;11.90;99.90;;;;;;4963665;28;20537;-71
2021/04/11 03:03:27;;;;;;;7.00;5.83;;;11.80;99.90;;;;;;4961516;28;21175;-71
2021/04/11 03:05:59;;;;;;;7.27;5.90;;;11.90;99.90;;;;;;4952226;28;20995;-74
2021/04/11 03:08:29;;;;;;;6.90;6.30;;;11.80;99.90;;;;;;4975137;28;20435;-72
2021/04/11 03:11:13;;;;;;;5.63;5.13;;;11.80;99.90;;;;;;4964479;28;20446;-72
2021/04/11 03:13:40;;;;;;;5.53;5.03;;;11.80;99.90;;;;;;4960441;28;20442;-70
2021/04/11 03:16:05;;;;;;;6.27;5.67;;;11.80;99.90;;;;;;4961577;28;21263;-72
2021/04/11 03:18:31;;;;;;;8.63;5.97;;;11.70;99.90;;;;;;4959188;28;20460;-71
2021/04/11 03:20:58;;;;;;;10.50;6.10;;;11.70;99.90;;;;;;4953527;28;20279;-73
2021/04/11 03:23:24;;;;;;;7.27;6.53;;;11.70;99.90;;;;;;4960820;28;20948;-73
2021/04/11 03:26:01;;;;;;;7.07;5.13;;;11.70;99.90;;;;;;4960981;28;20533;-72
2021/04/11 03:28:33;;;;;;;6.70;6.03;;;11.70;99.90;;;;;;4960146;28;20456;-71
2021/04/11 03:31:21;;;;;;;6.23;5.63;;;11.80;99.90;;;;;;4954427;28;20434;-71
2021/04/11 03:33:49;;;;;;;5.63;5.13;;;11.80;99.90;;;;;;4955979;28;20544;-70
2021/04/11 03:36:18;;;;;;;5.70;5.17;;;11.80;99.90;;;;;;4953840;28;20454;-73
2021/04/11 03:38:46;;;;;;;5.93;5.20;;;11.80;99.90;;;;;;4958778;28;20449;-73
2021/04/11 03:41:12;;;;;;;7.43;5.73;;;11.80;99.90;;;;;;4962072;28;20552;-72
2021/04/11 03:43:52;;;;;;;7.53;6.10;;;11.80;99.90;;;;;;4958322;28;20427;-73
2021/04/11 03:46:50;;;;;;;6.10;5.50;;;11.80;99.90;;;;;;4948920;28;20442;-73
2021/04/11 03:49:26;;;;;;;5.87;5.27;;;11.90;99.90;;;;;;4918056;28;20487;-70
2021/04/11 03:51:54;;;;;;;5.47;4.97;;;11.90;99.90;;;;;;4959750;28;20436;-69
2021/04/11 03:54:24;;;;;;;6.20;5.60;;;11.90;99.90;;;;;;4959079;28;20430;-71
2021/04/11 03:57:07;;;;;;;7.87;5.57;;;11.90;99.90;;;;;;4957746;28;20434;-72
2021/04/11 03:59:38;;;;;;;5.93;5.43;;;11.90;99.90;;;;;;4960260;28;21089;-72
2021/04/11 04:02:06;;;;;;;6.33;5.40;;;11.90;99.90;;;;;;4954130;28;20480;-71
2021/04/11 04:04:37;;;;;;;6.67;5.97;;;11.90;99.90;;;;;;4956815;28;20448;-71
2021/04/11 04:07:14;;;;;;;6.13;5.53;;;11.90;99.90;;;;;;4962975;28;21078;-71
2021/04/11 04:09:42;;;;;;;5.60;5.10;;;11.90;99.90;;;;;;4964038;28;20434;-69
2021/04/11 04:12:29;;;;;;;5.70;5.10;;;11.90;99.90;;;;;;4967171;28;21159;-71
2021/04/11 04:15:13;;;;;;;6.43;5.37;;;11.90;99.90;;;;;;4956684;28;20580;-73
2021/04/11 04:17:50;;;;;;;5.83;5.23;;;11.80;99.90;;;;;;4961810;28;20506;-70
2021/04/11 04:20:24;;;;;;;6.13;5.23;;;11.80;99.90;;;;;;4970665;28;20530;-72
2021/04/11 04:23:11;;;;;;;6.30;5.27;;;11.80;99.90;;;;;;4964770;28;20445;-72
2021/04/11 04:26:03;;;;;;;5.70;5.10;;;11.80;99.90;;;;;;4965259;28;20439;-71
2021/04/11 04:28:47;;;;;;;7.17;4.90;;;11.80;99.90;;;;;;4917019;28;20900;-74
2021/04/11 04:31:30;;;;;;;5.00;4.60;;;11.70;99.90;;;;;;4958298;28;20417;-71
2021/04/11 04:34:04;;;;;;;5.20;4.70;;;11.70;99.90;;;;;;4959238;28;20426;-70
2021/04/11 04:36:47;;;;;;;8.73;5.30;;;11.70;99.90;;;;;;4963405;28;20461;-71
2021/04/11 04:39:32;;;;;;;5.63;5.03;;;11.70;99.90;;;;;;4958380;28;20444;-73
2021/04/11 04:42:27;;;;;;;5.60;4.93;;;11.70;99.90;;;;;;4953744;28;21003;-73
2021/04/11 04:45:06;;;;;;;5.77;5.17;;;11.70;99.90;;;;;;4958971;28;20468;-75
2021/04/11 04:47:53;;;;;;;5.97;4.70;;;11.70;99.90;;;;;;4959523;28;20441;-72
2021/04/11 04:50:27;;;;;;;4.20;3.90;;;11.70;99.90;;;;;;4957590;28;20464;-72
2021/04/11 04:53:25;;;;;;;4.97;4.50;;;11.60;99.90;;;;;;4957568;28;20504;-71
2021/04/11 04:55:55;;;;;;;5.70;4.53;;;11.60;99.90;;;;;;4968221;28;20536;-72
2021/04/11 04:58:32;;;;;;;4.40;3.73;;;11.60;99.90;;;;;;4961939;28;21190;-71
2021/04/11 05:01:05;;;;;;;4.03;3.73;;;11.60;99.90;;;;;;4959696;28;20481;-72
2021/04/11 05:03:44;;;;;;;4.20;3.80;;;11.60;99.90;;;;;;4960624;28;20419;-74
2021/04/11 05:06:17;;;;;;;5.97;4.67;;;11.60;99.90;;;;;;4964877;28;20547;-72
2021/04/11 05:08:48;;;;;;;5.57;4.13;;;11.60;99.90;;;;;;4965902;28;20422;-71
2021/04/11 05:11:31;;;;;;;4.77;4.37;;;11.60;99.90;;;;;;4967102;28;20447;-72
2021/04/11 05:14:10;;;;;;;6.77;4.90;;;11.60;99.90;;;;;;4958405;28;20446;-74
2021/04/11 05:16:46;;;;;;;5.73;4.40;;;11.60;99.90;;;;;;4968168;28;20432;-73
2021/04/11 05:19:44;;;;;;;4.10;3.70;;;11.60;99.90;;;;;;4957350;28;20553;-75
2021/04/11 05:22:25;;;;;;;4.87;4.17;;;11.60;99.90;;;;;;4962022;28;20453;-74
2021/04/11 05:25:03;;;;;;;4.87;4.37;;;11.60;99.90;;;;;;4961574;28;20450;-72
2021/04/11 05:27:47;;;;;;;4.40;4.00;;;11.60;99.90;;;;;;4952757;28;20997;-74
2021/04/11 05:30:15;;;;;;;6.87;4.60;;;11.60;99.90;;;;;;4963606;28;20890;-72
2021/04/11 05:32:41;;;;;;;4.83;4.43;;;11.60;99.90;;;;;;4966627;28;20472;-74
2021/04/11 05:35:09;;;;;;;4.63;4.23;;;11.60;99.90;;;;;;4967668;28;20529;-73
2021/04/11 05:37:48;;;;;;;4.50;4.10;;;11.50;99.90;;;;;;4970856;28;20436;-74
2021/04/11 05:40:26;;;;;;;4.83;4.40;;;11.50;99.90;;;;;;4958445;28;20467;-71
2021/04/11 05:43:03;;;;;;;5.17;4.70;;;11.50;99.90;;;;;;4964213;28;20418;-71
2021/04/11 05:45:44;;;;;;;4.77;4.23;;;11.50;99.90;;;;;;4966142;28;20433;-73
2021/04/11 05:48:38;;;;;;;5.23;4.67;;;11.60;99.90;;;;;;4970790;28;20438;-73
2021/04/11 05:51:32;;;;;;;4.53;4.13;;;11.70;99.90;;;;;;4957488;28;20750;-73
2021/04/11 05:54:08;;;;;;;4.53;4.10;;;11.70;99.90;;;;;;4965192;28;20509;-74
2021/04/11 05:56:42;;;;;;;4.93;4.43;;;11.80;99.90;;;;;;4960545;28;20490;-74
2021/04/11 05:59:16;;;;;;;4.40;4.00;;;11.90;99.90;;;;;;4958894;28;20443;-75
2021/04/11 06:01:55;;;;;;;5.07;4.30;;;11.90;99.90;;;;;;4959240;28;20580;-73
2021/04/11 06:04:46;;;;;;;6.20;3.90;;;12.00;99.90;;;;;;4960742;28;20488;-70
2021/04/11 06:07:42;;;;;;;4.30;3.90;;;12.10;99.90;;;;;;4966411;28;20481;-73
2021/04/11 06:10:19;;;;;;;4.67;4.30;;;12.10;99.90;;;;;;4963710;28;20441;-72
2021/04/11 06:13:00;;;;;;;5.27;4.47;;;12.10;99.90;;;;;;4964621;28;20491;-73
2021/04/11 06:15:41;;;;;;;6.30;4.87;;;12.20;99.90;;;;;;4968796;28;20533;-73
2021/04/11 06:18:09;;;;;;;4.40;4.00;;;12.30;99.90;;;;;;4949793;28;20528;-72
2021/04/11 06:20:36;;;;;;;4.80;4.30;;;12.40;99.90;;;;;;4980845;28;20459;-74
2021/04/11 06:23:24;;;;;;;4.70;4.30;;;12.60;99.90;;;;;;4967297;28;20514;-71
2021/04/11 06:26:19;;;;;;;4.77;4.17;;;12.60;99.90;;;;;;4964648;28;21023;-71
2021/04/11 06:29:00;;;;;;;5.77;5.13;;;12.70;99.90;;;;;;4971234;28;20413;-71
2021/04/11 06:31:35;;;;;;;5.77;5.27;;;12.80;99.90;;;;;;4963633;28;20449;-72
2021/04/11 06:34:06;;;;;;;6.17;5.40;;;12.90;99.90;;;;;;4968020;28;21190;-72
2021/04/11 06:36:40;;;;;;;7.87;5.77;;;13.10;99.90;;;;;;4972865;28;20543;-71
2021/04/11 06:39:31;;;;;;;8.40;4.17;;;13.10;99.90;;;;;;4967105;28;20515;-74
2021/04/11 06:42:10;;;;;;;5.57;4.40;;;13.30;99.90;;;;;;4971792;28;20619;-70
2021/04/11 06:44:47;;;;;;;4.80;4.40;;;13.40;99.90;;;;;;4961759;28;20446;-73
2021/04/11 06:47:37;;;;;;;4.80;3.53;;;13.60;99.90;;;;;;4973193;28;20510;-72
2021/04/11 06:50:21;;;;;;;4.37;3.67;;;13.70;99.90;;;;;;4973139;28;20441;-70
2021/04/11 06:53:24;;;;;;;5.10;3.93;;;13.90;99.90;;;;;;4973074;28;20425;-72
2021/04/11 06:55:52;;;;;;;5.20;4.10;;;14.10;99.90;;;;;;4964952;28;20453;-72
2021/04/11 06:58:36;;;;;;;4.40;4.00;;;14.20;99.90;;;;;;4967186;28;20471;-75
2021/04/11 07:01:23;;;;;;;5.83;3.60;;;14.30;99.90;;;;;;4962187;28;21402;-71
2021/04/11 07:03:48;;;;;;;4.53;3.87;;;14.40;99.90;;;;;;4963952;28;20422;-74
2021/04/11 07:06:17;;;;;;;4.33;3.77;;;14.50;99.90;;;;;;4965066;28;22052;-73
2021/04/11 07:08:57;;;;;;;4.70;3.90;;;14.60;99.90;;;;;;4964546;28;20210;-72
2021/04/11 07:11:53;;;;;;;3.83;3.50;;;14.70;99.90;;;;;;4957803;28;20438;-72
2021/04/11 07:15:01;;;;;;;4.10;3.63;;;14.80;99.90;;;;;;4968624;28;20423;-71
2021/04/11 07:17:50;;;;;;;3.87;3.57;;;14.90;99.90;;;;;;4938131;28;20456;-73
2021/04/11 07:20:45;;;;;;;3.83;3.53;;;15.00;99.90;;;;;;4970761;28;20472;-71
2021/04/11 07:23:29;;;;;;;3.80;3.50;;;15.00;99.90;;;;;;4923800;28;20501;-73
2021/04/11 07:26:19;;;;;;;3.73;3.43;;;15.10;99.90;;;;;;4965830;28;20454;-71
2021/04/11 07:28:58;;;;;;;5.17;4.60;;;15.20;99.90;;;;;;4967454;28;20418;-74
2021/04/11 07:31:38;;;;;;;7.20;6.03;;;15.30;99.90;;;;;;4962376;28;20425;-72
2021/04/11 07:34:25;;;;;;;5.03;4.37;;;15.40;99.90;;;;;;4966847;28;20524;-73
2021/04/11 07:37:22;;;;;;;5.80;4.40;;;15.50;99.90;;;;;;4958489;28;20464;-72
2021/04/11 07:39:56;;;;;;;4.53;3.97;;;15.70;99.90;;;;;;4967496;28;20556;-73
2021/04/11 07:42:52;;;;;;;4.93;4.20;;;15.80;99.90;;;;;;4959368;28;20425;-71
2021/04/11 07:46:12;;;;;;;4.27;3.90;;;16.00;99.90;;;;;;4960880;28;20561;-73
2021/04/11 07:48:47;;;;;;;4.13;3.73;;;16.00;99.90;;;;;;4941241;28;20729;-72
2021/04/11 07:51:29;;;;;;;4.00;3.67;;;16.00;99.90;;;;;;4957658;28;20480;-73
2021/04/11 07:54:14;;;;;;;3.80;3.50;;;16.10;99.90;;;;;;4965317;28;20450;-71
2021/04/11 07:57:09;;;;;;;4.43;4.03;;;16.10;99.90;;;;;;4961807;28;20519;-73
2021/04/11 08:00:06;;;;;;;3.57;3.27;;;16.20;99.90;;;;;;4953666;28;20450;-73
2021/04/11 08:03:26;;;;;;;3.80;3.50;;;16.20;99.90;;;;;;4967928;28;20413;-73
2021/04/11 08:06:18;;;;;;;4.10;3.70;;;16.30;99.90;;;;;;4908578;29;20526;-72
2021/04/11 08:09:11;;;;;;;3.83;3.50;;;16.30;99.90;;;;;;4947831;28;20426;-73
2021/04/11 08:12:08;;;;;;;4.23;3.83;;;16.40;99.90;;;;;;4968758;28;20433;-71
2021/04/11 08:14:49;;;;;;;3.27;3.07;;;16.50;99.90;;;;;;4965829;28;20414;-74
2021/04/11 08:17:47;;;;;;;4.47;4.07;;;16.60;99.90;;;;;;4954108;28;20476;-72
2021/04/11 08:20:51;;;;;;;3.80;3.50;;;16.70;99.90;;;;;;4974850;28;21052;-72
2021/04/11 08:23:26;;;;;;;6.53;3.63;;;16.90;99.90;;;;;;4969246;28;20500;-72
2021/04/11 08:26:37;;;;;;;4.10;3.70;;;17.10;99.90;;;;;;4952517;28;20453;-72
2021/04/11 08:29:05;;;;;;;3.57;3.27;;;17.20;99.90;;;;;;4966816;28;20939;-73
2021/04/11 08:31:58;;;;;;;5.73;3.50;;;17.40;99.90;;;;;;4960768;28;20489;-72
2021/04/11 08:34:50;;;;;;;4.47;4.03;;;17.40;99.90;;;;;;4966823;28;20437;-73
2021/04/11 08:37:52;;;;;;;4.10;3.80;;;17.60;99.90;;;;;;4937702;28;21276;-71
2021/04/11 08:40:21;;;;;;;4.23;3.93;;;17.70;99.90;;;;;;4972832;28;20467;-72
2021/04/11 08:43:28;;;;;;;4.47;4.07;;;17.90;99.90;;;;;;4968694;28;20441;-71
2021/04/11 08:46:14;;;;;;;4.17;3.87;;;18.30;99.90;;;;;;4933922;28;20475;-73
2021/04/11 08:48:44;;;;;;;4.57;4.17;;;19.10;99.90;;;;;;4959454;28;20434;-75
2021/04/11 08:51:46;;;;;;;4.33;3.93;;;20.00;99.90;;;;;;4964718;28;20460;-75
2021/04/11 08:54:25;;;;;;;6.47;3.37;;;20.10;99.90;;;;;;4964733;28;20444;-71
2021/04/11 08:57:12;;;;;;;3.90;3.50;;;20.10;98.20;;;;;;4966534;28;20432;-72
2021/04/11 09:00:03;;;;;;;4.63;3.70;;;20.90;98.30;;;;;;4958425;28;20509;-70
2021/04/11 09:03:03;;;;;;;4.00;3.70;;;22.60;94.20;;;;;;4963023;28;20445;-73
2021/04/11 09:05:54;;;;;;;3.60;3.23;;;24.30;90.50;;;;;;4972638;28;20452;-71
2021/04/11 09:08:22;;;;;;;4.07;3.60;;;26.30;78.90;;;;;;4982503;28;20438;-72
2021/04/11 09:11:19;;;;;;;4.37;3.87;;;26.40;64.30;;;;;;4973394;28;21214;-73
2021/04/11 09:14:06;;;;;;;3.40;3.20;;;26.90;63.30;;;;;;4964244;28;20418;-71
2021/04/11 09:16:59;;;;;;;3.40;3.20;;;27.60;57.50;;;;;;4972686;28;20983;-72
2021/04/11 09:19:46;;;;;;;3.93;3.40;;;26.20;55.70;;;;;;4968711;28;20515;-70
2021/04/11 09:22:35;;;;;;;3.50;3.20;;;25.20;55.50;;;;;;4961283;28;20945;-73
2021/04/11 09:25:12;;;;;;;3.03;2.83;;;25.50;56.10;;;;;;4964391;28;20607;-73
2021/04/11 09:27:49;;;;;;;2.87;2.67;;;27.20;55.30;;;;;;4963769;28;20425;-72
2021/04/11 09:31:06;;;;;;;5.63;3.27;;;27.40;51.60;;;;;;4965000;28;20416;-71
2021/04/11 09:33:52;;;;;;;3.53;3.33;;;25.80;51.90;;;;;;4919614;28;20967;-72
2021/04/11 09:36:54;;;;;;;6.23;3.60;;;25.90;52.80;;;;;;4960903;28;21238;-72
2021/04/11 09:39:52;;;;;;;3.90;3.60;;;27.10;51.70;;;;;;4962895;28;20496;-72
2021/04/11 09:42:45;;;;;;;3.87;3.67;;;27.80;50.50;;;;;;4967241;28;20919;-72
2021/04/11 09:45:32;;;;;;;4.10;3.77;;;28.90;48.80;;;;;;4970382;28;20815;-72
2021/04/11 09:48:01;;;;;;;4.27;3.90;;;29.70;47.80;;;;;;4952871;28;20969;-72
2021/04/11 09:50:35;;;;;;;5.30;3.63;;;30.00;46.40;;;;;;4963382;28;20449;-72
2021/04/11 09:53:31;;;;;;;3.97;3.70;;;30.80;44.60;;;;;;4963489;28;20421;-71
2021/04/11 09:56:21;;;;;;;3.70;3.40;;;29.90;44.50;;;;;;4961947;28;20450;-71
2021/04/11 09:59:11;;;;;;;3.93;3.63;;;27.10;46.10;;;;;;4957456;28;20455;-70
2021/04/11 10:02:00;;;;;;;9.53;4.20;;;24.90;49.30;;;;;;4962554;28;20453;-72
2021/04/11 10:04:45;;;;;;;5.40;3.90;;;23.40;51.60;;;;;;4963845;28;20442;-72
2021/04/11 10:07:21;;;;;;;4.23;3.83;;;22.30;53.80;;;;;;4958896;28;20492;-72
2021/04/11 10:10:08;;;;;;;4.03;3.70;;;21.70;55.60;;;;;;4963150;28;20451;-71
2021/04/11 10:12:52;;;;;;;3.60;3.20;;;21.30;56.40;;;;;;4958887;28;20441;-72
2021/04/11 10:15:47;;;;;;;3.53;3.00;;;20.90;57.30;;;;;;4965645;28;20482;-72
2021/04/11 10:18:31;;;;;;;3.40;3.10;;;20.70;58.30;;;;;;4964372;28;20440;-72
2021/04/11 10:21:18;;;;;;;8.03;3.47;;;20.30;59.30;;;;;;4965179;28;20495;-71
2021/04/11 10:24:05;;;;;;;4.00;3.70;;;19.90;60.20;;;;;;4961281;28;21322;-72
2021/04/11 10:26:53;;;;;;;4.50;3.90;;;19.80;61.50;;;;;;4959372;28;20437;-71
2021/04/11 10:29:24;;;;;;;4.07;3.70;;;19.50;60.90;;;;;;4967292;28;20716;-73
2021/04/11 10:32:08;;;;;;;3.40;3.10;;;19.10;61.70;;;;;;4972939;28;20425;-71
2021/04/11 10:34:45;;;;;;;4.50;3.60;;;18.90;62.10;;;;;;4961776;28;21308;-72
2021/04/11 10:37:26;;;;;;;4.70;3.60;;;18.50;62.70;;;;;;4974324;28;20425;-72
2021/04/11 10:40:20;;;;;;;3.73;3.43;;;18.40;63.40;;;;;;4962625;28;20455;-71
2021/04/11 10:43:28;;;;;;;3.83;3.53;;;18.30;64.40;;;;;;4952898;28;20466;-71
2021/04/11 10:46:12;;;;;;;3.60;3.40;;;18.20;66.20;;;;;;4961581;28;20564;-71
2021/04/11 10:49:07;;;;;;;3.70;3.43;;;18.40;66.80;;;;;;4956329;28;20422;-72
2021/04/11 10:52:07;;;;;;;4.20;3.27;;;18.30;66.80;;;;;;4959988;28;20475;-73
2021/04/11 10:54:39;;;;;;;3.40;3.20;;;18.30;67.10;;;;;;4958152;28;20443;-72
2021/04/11 10:57:23;;;;;;;3.50;3.30;;;18.20;67.70;;;;;;4960080;28;20436;-72
2021/04/11 11:00:00;;;;;;;4.20;3.80;;;18.10;68.30;;;;;;4957964;28;21283;-72
2021/04/11 11:02:32;;;;;;;4.17;3.77;;;18.40;68.60;;;;;;4961407;28;20489;-71
2021/04/11 11:05:22;;;;;;;4.50;3.30;;;19.00;67.60;;;;;;4956767;28;20440;-71
2021/04/11 11:08:09;;;;;;;3.60;3.30;;;20.70;65.90;;;;;;4959400;28;20433;-72
2021/04/11 11:10:48;;;;;;;3.77;3.53;;;22.60;62.10;;;;;;4959850;28;20437;-70
2021/04/11 11:13:44;;;;;;;3.53;3.33;;;24.20;58.80;;;;;;4964324;28;20549;-71
2021/04/11 11:16:28;;;;;;;4.80;4.30;;;26.00;55.80;;;;;;4965194;28;20449;-73
2021/04/11 11:19:12;;;;;;;3.73;3.43;;;27.50;52.60;;;;;;4957732;28;20457;-72
2021/04/11 11:22:06;;;;;;;3.80;3.50;;;28.60;50.40;;;;;;4959749;28;20463;-73
2021/04/11 11:25:06;;;;;;;4.10;3.80;;;28.00;49.60;;;;;;4960883;28;20866;-71
2021/04/11 11:28:01;;;;;;;6.27;4.37;;;27.50;49.60;;;;;;4958930;28;20881;-72
2021/04/11 11:30:35;;;;;;;8.10;7.33;;;29.60;47.80;;;;;;4916411;28;20460;-72
2021/04/11 11:33:18;;;;;;;4.50;4.10;;;29.00;46.40;;;;;;4962556;28;20428;-72
2021/04/11 11:36:11;;;;;;;4.33;3.90;;;27.70;46.60;;;;;;4964169;28;20466;-71
2021/04/11 11:38:53;;;;;;;4.17;3.87;;;27.20;47.90;;;;;;4958022;28;20560;-71
2021/04/11 11:41:48;;;;;;;4.20;3.80;;;26.70;47.70;;;;;;4966163;28;20464;-71
2021/04/11 11:44:27;;;;;;;3.50;3.20;;;26.10;48.70;;;;;;4957683;28;20870;-71
2021/04/11 11:47:14;;;;;;;4.17;3.87;;;25.50;48.90;;;;;;4963540;28;20426;-72
2021/04/11 11:50:00;;;;;;;5.77;3.87;;;24.50;50.40;;;;;;4967338;28;21331;-71
2021/04/11 11:52:33;;;;;;;3.57;3.37;;;24.70;51.70;;;;;;4962603;28;20431;-72
2021/04/11 11:55:02;;;;;;;4.33;3.40;;;24.80;52.30;;;;;;4956011;28;21175;-72
2021/04/11 11:57:43;;;;;;;3.87;3.47;;;25.20;51.20;;;;;;4957838;28;20450;-74
2021/04/11 12:00:34;;;;;;;3.87;3.57;;;25.50;50.80;;;;;;4956242;28;20466;-71
2021/04/11 12:03:22;;;;;;;3.60;3.40;;;26.60;50.20;;;;;;4959277;28;20523;-72
2021/04/11 12:06:04;;;;;;;4.10;3.80;;;27.20;48.70;;;;;;4960798;28;20545;-73
2021/04/11 12:08:47;;;;;;;3.00;2.80;;;26.40;48.20;;;;;;4961830;28;20421;-72
2021/04/11 12:11:39;;;;;;;3.83;3.47;;;27.10;48.40;;;;;;4958198;28;20706;-72
2021/04/11 12:14:45;;;;;;;3.70;3.40;;;28.40;46.80;;;;;;4961627;28;20515;-71
2021/04/11 12:17:23;;;;;;;3.70;3.50;;;28.60;45.40;;;;;;4964344;28;20955;-72
2021/04/11 12:20:01;;;;;;;3.60;3.30;;;28.70;45.40;;;;;;4968443;28;20866;-72
2021/04/11 12:22:37;;;;;;;3.63;3.40;;;27.40;45.50;;;;;;4955523;28;20496;-72
2021/04/11 12:25:22;;;;;;;4.60;4.30;;;25.90;46.90;;;;;;4956765;28;20452;-71
2021/04/11 12:27:49;;;;;;;3.70;3.47;;;25.60;48.60;;;;;;4959063;28;20446;-72
2021/04/11 12:30:27;;;;;;;3.90;3.70;;;26.80;47.30;;;;;;4966439;28;20448;-71
2021/04/11 12:32:56;;;;;;;3.50;3.30;;;27.80;47.00;;;;;;4964844;28;20437;-72
2021/04/11 12:35:35;;;;;;;3.93;3.53;;;27.50;46.10;;;;;;4958438;28;21015;-72
2021/04/11 12:38:18;;;;;;;3.53;3.30;;;27.60;46.30;;;;;;4964356;28;20463;-71
2021/04/11 12:40:57;;;;;;;3.20;3.00;;;27.40;46.10;;;;;;4966548;28;20489;-73
2021/04/11 12:43:48;;;;;;;5.07;3.70;;;26.80;46.10;;;;;;4969346;28;20421;-72
2021/04/11 12:46:46;;;;;;;3.60;3.40;;;25.80;47.40;;;;;;4951124;28;20516;-71
2021/04/11 12:49:27;;;;;;;3.70;3.40;;;25.50;48.20;;;;;;4929083;28;20465;-72
2021/04/11 12:52:18;;;;;;;3.67;3.37;;;25.50;49.20;;;;;;4961397;28;20804;-72
2021/04/11 12:54:45;;;;;;;3.10;2.90;;;25.60;49.40;;;;;;4962226;28;20968;-72
2021/04/11 12:57:23;;;;;;;3.27;3.07;;;26.50;48.10;;;;;;4966644;28;20940;-72
2021/04/11 12:59:56;;;;;;;4.03;3.73;;;26.10;47.60;;;;;;4965726;28;20577;-71
2021/04/11 13:03:03;;;;;;;3.17;2.97;;;25.80;48.60;;;;;;4968670;28;20471;-73
2021/04/11 13:05:31;;;;;;;3.63;3.33;;;25.50;49.30;;;;;;4859413;29;20592;-72
2021/04/11 13:08:06;;;;;;;3.50;3.30;;;25.30;50.10;;;;;;4943773;28;20447;-73
2021/04/11 13:10:48;;;;;;;3.93;3.63;;;26.50;49.90;;;;;;4957536;28;20805;-73
2021/04/11 13:13:41;;;;;;;3.60;3.30;;;26.90;47.90;;;;;;4954096;28;20899;-72
2021/04/11 13:16:23;;;;;;;3.37;3.17;;;27.20;47.90;;;;;;4971221;28;20465;-72
2021/04/11 13:19:10;;;;;;;3.70;3.37;;;28.50;47.20;;;;;;4957748;28;20485;-72
2021/04/11 13:22:15;;;;;;;3.53;3.33;;;28.90;45.50;;;;;;4957148;28;20469;-72
2021/04/11 13:25:08;;;;;;;4.03;3.63;;;27.60;46.40;;;;;;4957746;28;20438;-72
2021/04/11 13:28:19;;;;;;;3.93;3.63;;;26.10;47.50;;;;;;4948626;28;20493;-73
2021/04/11 13:31:09;;;;;;;4.47;4.10;;;24.70;49.50;;;;;;4959715;28;20500;-71
2021/04/11 13:33:47;;;;;;;3.83;3.53;;;23.80;51.10;;;;;;4964150;28;20503;-71
2021/04/11 13:36:37;;;;;;;19.63;16.97;;;22.90;52.40;;;;;;4973983;28;20656;-71
2021/04/11 13:39:14;;;;;;;4.10;3.60;;;22.10;53.50;;;;;;4948976;28;20898;-72
2021/04/11 13:41:51;;;;;;;3.97;3.67;;;21.50;54.50;;;;;;4955823;28;20560;-73
2021/04/11 13:44:38;;;;;;;4.13;3.83;;;20.70;55.70;;;;;;4955333;28;20440;-73
2021/04/11 13:47:26;;;;;;;6.90;6.20;;;20.00;57.20;;;;;;4972286;28;20475;-71
2021/04/11 13:50:02;;;;;;;3.57;3.30;;;19.60;58.40;;;;;;4959613;28;20462;-73
2021/04/11 13:52:35;;;;;;;4.07;3.77;;;19.20;59.20;;;;;;4955010;28;20908;-72